sensor_id;sensor_type;location;lat;lon;timestamp;P1;durP1;ratioP1;P2;durP2;ratioP2
57331;SDS011;43164;50.908;18.092;2022-12-29T00:00:32;10.50;;;3.40;;
57331;SDS011;43164;50.908;18.092;2022-12-29T00:03:02;11.10;;;3.60;;
57331;SDS011;43164;50.908;18.092;2022-12-29T00:05:29;9.00;;;2.90;;
57331;SDS011;43164;50.908;18.092;2022-12-29T00:07:58;10.40;;;4.10;;
57331;SDS011;43164;50.908;18.092;2022-12-29T00:10:24;10.40;;;3.50;;
57331;SDS011;43164;50.908;18.092;2022-12-29T00:12:52;8.80;;;3.20;;
57331;SDS011;43164;50.908;18.092;2022-12-29T00:15:38;10.90;;;3.30;;
57331;SDS011;43164;50.908;18.092;2022-12-29T00:18:06;9.70;;;3.40;;
57331;SDS011;43164;50.908;18.092;2022-12-29T00:20:35;8.60;;;3.30;;
57331;SDS011;43164;50.908;18.092;2022-12-29T00:23:23;9.70;;;3.90;;
57331;SDS011;43164;50.908;18.092;2022-12-29T00:26:15;11.20;;;3.40;;
57331;SDS011;43164;50.908;18.092;2022-12-29T00:29:06;9.60;;;3.40;;
57331;SDS011;43164;50.908;18.092;2022-12-29T00:31:55;10.50;;;3.70;;
57331;SDS011;43164;50.908;18.092;2022-12-29T00:34:42;7.50;;;2.90;;
57331;SDS011;43164;50.908;18.092;2022-12-29T00:37:29;11.00;;;3.50;;
57331;SDS011;43164;50.908;18.092;2022-12-29T00:40:16;9.70;;;3.70;;
57331;SDS011;43164;50.908;18.092;2022-12-29T00:43:06;10.10;;;3.80;;
57331;SDS011;43164;50.908;18.092;2022-12-29T00:45:52;9.80;;;3.20;;
57331;SDS011;43164;50.908;18.092;2022-12-29T00:48:21;10.70;;;3.20;;
57331;SDS011;43164;50.908;18.092;2022-12-29T00:51:08;9.30;;;3.30;;
57331;SDS011;43164;50.908;18.092;2022-12-29T00:53:36;9.40;;;3.30;;
57331;SDS011;43164;50.908;18.092;2022-12-29T00:56:05;13.40;;;4.00;;
57331;SDS011;43164;50.908;18.092;2022-12-29T00:58:33;11.30;;;3.90;;
57331;SDS011;43164;50.908;18.092;2022-12-29T01:01:04;8.40;;;3.10;;
57331;SDS011;43164;50.908;18.092;2022-12-29T01:03:33;10.90;;;3.10;;
57331;SDS011;43164;50.908;18.092;2022-12-29T01:06:03;9.40;;;3.30;;
57331;SDS011;43164;50.908;18.092;2022-12-29T01:08:32;9.80;;;3.90;;
57331;SDS011;43164;50.908;18.092;2022-12-29T01:11:01;7.70;;;2.80;;
57331;SDS011;43164;50.908;18.092;2022-12-29T01:13:30;7.00;;;3.10;;
57331;SDS011;43164;50.908;18.092;2022-12-29T01:15:58;11.20;;;3.70;;
57331;SDS011;43164;50.908;18.092;2022-12-29T01:18:32;7.90;;;3.20;;
57331;SDS011;43164;50.908;18.092;2022-12-29T01:21:04;9.20;;;3.10;;
57331;SDS011;43164;50.908;18.092;2022-12-29T01:23:33;9.90;;;3.60;;
57331;SDS011;43164;50.908;18.092;2022-12-29T01:26:13;10.00;;;3.20;;
57331;SDS011;43164;50.908;18.092;2022-12-29T01:28:42;8.30;;;3.10;;
57331;SDS011;43164;50.908;18.092;2022-12-29T01:31:10;10.10;;;3.00;;
57331;SDS011;43164;50.908;18.092;2022-12-29T01:33:39;9.50;;;3.00;;
57331;SDS011;43164;50.908;18.092;2022-12-29T01:36:07;9.40;;;3.10;;
57331;SDS011;43164;50.908;18.092;2022-12-29T01:38:36;11.40;;;3.10;;
57331;SDS011;43164;50.908;18.092;2022-12-29T01:41:05;7.30;;;3.20;;
57331;SDS011;43164;50.908;18.092;2022-12-29T01:43:46;11.70;;;3.10;;
57331;SDS011;43164;50.908;18.092;2022-12-29T01:48:57;9.90;;;2.90;;
57331;SDS011;43164;50.908;18.092;2022-12-29T01:51:34;11.00;;;3.70;;
57331;SDS011;43164;50.908;18.092;2022-12-29T01:54:13;7.60;;;2.80;;
57331;SDS011;43164;50.908;18.092;2022-12-29T01:56:55;8.00;;;2.90;;
57331;SDS011;43164;50.908;18.092;2022-12-29T01:59:24;7.90;;;2.60;;
57331;SDS011;43164;50.908;18.092;2022-12-29T02:01:59;9.10;;;3.40;;
57331;SDS011;43164;50.908;18.092;2022-12-29T02:04:26;10.00;;;3.20;;
57331;SDS011;43164;50.908;18.092;2022-12-29T02:07:01;10.00;;;3.30;;
57331;SDS011;43164;50.908;18.092;2022-12-29T02:09:35;11.30;;;3.50;;
57331;SDS011;43164;50.908;18.092;2022-12-29T02:12:03;9.20;;;3.40;;
57331;SDS011;43164;50.908;18.092;2022-12-29T02:14:30;9.00;;;3.20;;
57331;SDS011;43164;50.908;18.092;2022-12-29T02:17:16;11.20;;;3.40;;
57331;SDS011;43164;50.908;18.092;2022-12-29T02:26:27;8.90;;;3.20;;
57331;SDS011;43164;50.908;18.092;2022-12-29T02:38:13;8.30;;;2.90;;
57331;SDS011;43164;50.908;18.092;2022-12-29T02:44:04;8.90;;;2.70;;
57331;SDS011;43164;50.908;18.092;2022-12-29T02:46:45;8.60;;;2.90;;
57331;SDS011;43164;50.908;18.092;2022-12-29T02:49:41;8.30;;;3.10;;
57331;SDS011;43164;50.908;18.092;2022-12-29T02:52:32;8.40;;;2.90;;
57331;SDS011;43164;50.908;18.092;2022-12-29T02:55:27;7.50;;;2.70;;
57331;SDS011;43164;50.908;18.092;2022-12-29T03:01:14;10.40;;;3.50;;
57331;SDS011;43164;50.908;18.092;2022-12-29T03:12:22;9.60;;;3.40;;
57331;SDS011;43164;50.908;18.092;2022-12-29T03:15:25;9.40;;;3.20;;
57331;SDS011;43164;50.908;18.092;2022-12-29T03:18:28;11.50;;;3.30;;
57331;SDS011;43164;50.908;18.092;2022-12-29T03:24:27;9.20;;;3.00;;
57331;SDS011;43164;50.908;18.092;2022-12-29T03:27:02;10.30;;;3.40;;
57331;SDS011;43164;50.908;18.092;2022-12-29T03:29:35;10.40;;;3.20;;
57331;SDS011;43164;50.908;18.092;2022-12-29T03:32:07;8.10;;;3.00;;
57331;SDS011;43164;50.908;18.092;2022-12-29T03:34:35;8.50;;;3.30;;
57331;SDS011;43164;50.908;18.092;2022-12-29T03:37:13;9.30;;;2.90;;
57331;SDS011;43164;50.908;18.092;2022-12-29T03:39:51;8.80;;;3.40;;
57331;SDS011;43164;50.908;18.092;2022-12-29T03:42:20;9.70;;;3.40;;
57331;SDS011;43164;50.908;18.092;2022-12-29T03:44:54;9.00;;;3.50;;
57331;SDS011;43164;50.908;18.092;2022-12-29T03:47:22;9.10;;;3.10;;
57331;SDS011;43164;50.908;18.092;2022-12-29T03:49:50;10.00;;;3.40;;
57331;SDS011;43164;50.908;18.092;2022-12-29T03:52:18;7.90;;;3.30;;
57331;SDS011;43164;50.908;18.092;2022-12-29T03:54:45;9.90;;;3.40;;
57331;SDS011;43164;50.908;18.092;2022-12-29T03:57:13;12.80;;;3.50;;
57331;SDS011;43164;50.908;18.092;2022-12-29T03:59:41;10.40;;;3.80;;
57331;SDS011;43164;50.908;18.092;2022-12-29T04:02:08;10.70;;;4.10;;
57331;SDS011;43164;50.908;18.092;2022-12-29T04:04:36;8.50;;;3.30;;
57331;SDS011;43164;50.908;18.092;2022-12-29T04:07:03;9.10;;;3.00;;
57331;SDS011;43164;50.908;18.092;2022-12-29T04:09:31;9.30;;;3.60;;
57331;SDS011;43164;50.908;18.092;2022-12-29T04:11:58;10.00;;;3.90;;
57331;SDS011;43164;50.908;18.092;2022-12-29T04:14:25;10.40;;;3.60;;
57331;SDS011;43164;50.908;18.092;2022-12-29T04:16:52;9.70;;;3.40;;
57331;SDS011;43164;50.908;18.092;2022-12-29T04:19:20;9.20;;;4.00;;
57331;SDS011;43164;50.908;18.092;2022-12-29T04:21:47;9.40;;;3.70;;
57331;SDS011;43164;50.908;18.092;2022-12-29T04:24:14;10.40;;;3.70;;
57331;SDS011;43164;50.908;18.092;2022-12-29T04:26:42;10.60;;;3.60;;
57331;SDS011;43164;50.908;18.092;2022-12-29T04:29:09;11.70;;;4.00;;
57331;SDS011;43164;50.908;18.092;2022-12-29T04:31:36;9.10;;;3.40;;
57331;SDS011;43164;50.908;18.092;2022-12-29T04:34:04;8.60;;;3.20;;
57331;SDS011;43164;50.908;18.092;2022-12-29T04:36:31;11.20;;;3.50;;
57331;SDS011;43164;50.908;18.092;2022-12-29T04:38:59;10.70;;;4.40;;
57331;SDS011;43164;50.908;18.092;2022-12-29T04:41:26;9.90;;;3.70;;
57331;SDS011;43164;50.908;18.092;2022-12-29T04:43:53;10.40;;;3.70;;
57331;SDS011;43164;50.908;18.092;2022-12-29T04:46:21;9.60;;;3.70;;
57331;SDS011;43164;50.908;18.092;2022-12-29T04:48:48;8.60;;;3.30;;
57331;SDS011;43164;50.908;18.092;2022-12-29T04:51:16;9.80;;;3.60;;
57331;SDS011;43164;50.908;18.092;2022-12-29T04:53:44;10.40;;;3.70;;
57331;SDS011;43164;50.908;18.092;2022-12-29T04:56:11;9.40;;;3.50;;
57331;SDS011;43164;50.908;18.092;2022-12-29T04:58:39;9.50;;;3.70;;
57331;SDS011;43164;50.908;18.092;2022-12-29T05:01:06;9.50;;;3.60;;
57331;SDS011;43164;50.908;18.092;2022-12-29T05:03:33;9.60;;;3.40;;
57331;SDS011;43164;50.908;18.092;2022-12-29T05:06:01;9.90;;;3.00;;
57331;SDS011;43164;50.908;18.092;2022-12-29T05:08:28;8.90;;;3.20;;
57331;SDS011;43164;50.908;18.092;2022-12-29T05:10:56;9.30;;;3.10;;
57331;SDS011;43164;50.908;18.092;2022-12-29T05:13:23;10.00;;;3.00;;
57331;SDS011;43164;50.908;18.092;2022-12-29T05:15:53;10.00;;;3.10;;
57331;SDS011;43164;50.908;18.092;2022-12-29T05:18:21;9.70;;;3.60;;
57331;SDS011;43164;50.908;18.092;2022-12-29T05:20:48;8.30;;;3.00;;
57331;SDS011;43164;50.908;18.092;2022-12-29T05:23:16;9.50;;;2.90;;
57331;SDS011;43164;50.908;18.092;2022-12-29T05:25:43;9.90;;;3.90;;
57331;SDS011;43164;50.908;18.092;2022-12-29T05:28:14;9.10;;;3.30;;
57331;SDS011;43164;50.908;18.092;2022-12-29T05:30:42;11.00;;;3.60;;
57331;SDS011;43164;50.908;18.092;2022-12-29T05:33:09;10.80;;;3.80;;
57331;SDS011;43164;50.908;18.092;2022-12-29T05:35:37;13.40;;;4.10;;
57331;SDS011;43164;50.908;18.092;2022-12-29T05:38:05;10.40;;;3.10;;
57331;SDS011;43164;50.908;18.092;2022-12-29T05:40:33;9.80;;;3.40;;
57331;SDS011;43164;50.908;18.092;2022-12-29T05:43:01;9.70;;;3.40;;
57331;SDS011;43164;50.908;18.092;2022-12-29T05:45:27;11.30;;;3.40;;
57331;SDS011;43164;50.908;18.092;2022-12-29T05:47:55;9.90;;;3.40;;
57331;SDS011;43164;50.908;18.092;2022-12-29T05:50:21;10.60;;;3.70;;
57331;SDS011;43164;50.908;18.092;2022-12-29T05:52:49;10.20;;;3.60;;
57331;SDS011;43164;50.908;18.092;2022-12-29T05:55:17;10.10;;;3.10;;
57331;SDS011;43164;50.908;18.092;2022-12-29T05:57:44;8.20;;;3.30;;
57331;SDS011;43164;50.908;18.092;2022-12-29T06:00:12;9.80;;;3.20;;
57331;SDS011;43164;50.908;18.092;2022-12-29T06:02:41;10.00;;;3.10;;
57331;SDS011;43164;50.908;18.092;2022-12-29T06:05:08;8.70;;;3.30;;
57331;SDS011;43164;50.908;18.092;2022-12-29T06:07:36;10.60;;;3.30;;
57331;SDS011;43164;50.908;18.092;2022-12-29T06:10:04;12.60;;;3.60;;
57331;SDS011;43164;50.908;18.092;2022-12-29T06:12:32;7.80;;;3.30;;
57331;SDS011;43164;50.908;18.092;2022-12-29T06:15:00;10.30;;;2.90;;
57331;SDS011;43164;50.908;18.092;2022-12-29T06:17:27;8.20;;;3.30;;
57331;SDS011;43164;50.908;18.092;2022-12-29T06:19:54;9.00;;;3.40;;
57331;SDS011;43164;50.908;18.092;2022-12-29T06:22:21;9.30;;;3.50;;
57331;SDS011;43164;50.908;18.092;2022-12-29T06:24:49;11.00;;;3.60;;
57331;SDS011;43164;50.908;18.092;2022-12-29T06:27:18;11.10;;;4.20;;
57331;SDS011;43164;50.908;18.092;2022-12-29T06:29:45;9.40;;;3.60;;
57331;SDS011;43164;50.908;18.092;2022-12-29T06:32:13;8.80;;;2.90;;
57331;SDS011;43164;50.908;18.092;2022-12-29T06:34:41;11.50;;;3.20;;
57331;SDS011;43164;50.908;18.092;2022-12-29T06:37:08;9.60;;;3.30;;
57331;SDS011;43164;50.908;18.092;2022-12-29T06:39:36;10.00;;;3.40;;
57331;SDS011;43164;50.908;18.092;2022-12-29T06:42:09;9.10;;;3.50;;
57331;SDS011;43164;50.908;18.092;2022-12-29T06:44:47;7.90;;;2.50;;
57331;SDS011;43164;50.908;18.092;2022-12-29T06:47:17;8.30;;;3.30;;
57331;SDS011;43164;50.908;18.092;2022-12-29T06:49:50;7.70;;;3.30;;
57331;SDS011;43164;50.908;18.092;2022-12-29T06:52:24;9.60;;;3.70;;
57331;SDS011;43164;50.908;18.092;2022-12-29T06:54:52;9.80;;;3.60;;
57331;SDS011;43164;50.908;18.092;2022-12-29T06:57:21;10.50;;;3.60;;
57331;SDS011;43164;50.908;18.092;2022-12-29T06:59:48;9.70;;;3.20;;
57331;SDS011;43164;50.908;18.092;2022-12-29T07:02:17;9.10;;;3.20;;
57331;SDS011;43164;50.908;18.092;2022-12-29T07:04:48;8.70;;;3.30;;
57331;SDS011;43164;50.908;18.092;2022-12-29T07:07:15;8.00;;;3.20;;
57331;SDS011;43164;50.908;18.092;2022-12-29T07:09:43;9.80;;;3.40;;
57331;SDS011;43164;50.908;18.092;2022-12-29T07:12:11;10.00;;;3.70;;
57331;SDS011;43164;50.908;18.092;2022-12-29T07:14:38;9.50;;;3.60;;
57331;SDS011;43164;50.908;18.092;2022-12-29T07:17:06;8.30;;;3.30;;
57331;SDS011;43164;50.908;18.092;2022-12-29T07:19:33;7.70;;;3.00;;
57331;SDS011;43164;50.908;18.092;2022-12-29T07:22:01;9.30;;;3.50;;
57331;SDS011;43164;50.908;18.092;2022-12-29T07:24:47;9.70;;;3.70;;
57331;SDS011;43164;50.908;18.092;2022-12-29T07:27:16;9.60;;;3.00;;
57331;SDS011;43164;50.908;18.092;2022-12-29T07:29:46;8.80;;;3.30;;
57331;SDS011;43164;50.908;18.092;2022-12-29T07:32:14;7.10;;;2.80;;
57331;SDS011;43164;50.908;18.092;2022-12-29T07:34:42;10.20;;;3.60;;
57331;SDS011;43164;50.908;18.092;2022-12-29T07:40:17;8.70;;;2.80;;
57331;SDS011;43164;50.908;18.092;2022-12-29T07:42:45;7.80;;;3.10;;
57331;SDS011;43164;50.908;18.092;2022-12-29T07:49:16;10.60;;;3.40;;
57331;SDS011;43164;50.908;18.092;2022-12-29T07:51:48;20.30;;;7.60;;
57331;SDS011;43164;50.908;18.092;2022-12-29T07:57:12;12.80;;;4.90;;
57331;SDS011;43164;50.908;18.092;2022-12-29T07:59:56;16.50;;;4.90;;
57331;SDS011;43164;50.908;18.092;2022-12-29T08:02:28;14.00;;;5.40;;
57331;SDS011;43164;50.908;18.092;2022-12-29T08:05:07;13.10;;;4.40;;
57331;SDS011;43164;50.908;18.092;2022-12-29T08:07:42;9.80;;;3.90;;
57331;SDS011;43164;50.908;18.092;2022-12-29T08:14:01;9.10;;;3.60;;
57331;SDS011;43164;50.908;18.092;2022-12-29T08:19:21;8.10;;;3.00;;
57331;SDS011;43164;50.908;18.092;2022-12-29T08:21:54;11.40;;;3.90;;
57331;SDS011;43164;50.908;18.092;2022-12-29T08:24:23;9.90;;;3.70;;
57331;SDS011;43164;50.908;18.092;2022-12-29T08:27:05;9.10;;;3.20;;
57331;SDS011;43164;50.908;18.092;2022-12-29T08:29:36;9.80;;;3.20;;
57331;SDS011;43164;50.908;18.092;2022-12-29T08:32:20;9.00;;;3.40;;
57331;SDS011;43164;50.908;18.092;2022-12-29T08:38:06;10.40;;;3.50;;
57331;SDS011;43164;50.908;18.092;2022-12-29T08:40:52;9.70;;;3.20;;
57331;SDS011;43164;50.908;18.092;2022-12-29T08:46:34;10.70;;;3.20;;
57331;SDS011;43164;50.908;18.092;2022-12-29T08:49:08;9.10;;;3.70;;
57331;SDS011;43164;50.908;18.092;2022-12-29T08:51:45;11.90;;;3.60;;
57331;SDS011;43164;50.908;18.092;2022-12-29T08:54:16;8.50;;;3.00;;
57331;SDS011;43164;50.908;18.092;2022-12-29T08:56:46;9.50;;;3.70;;
57331;SDS011;43164;50.908;18.092;2022-12-29T08:59:34;9.70;;;3.50;;
57331;SDS011;43164;50.908;18.092;2022-12-29T09:02:13;9.90;;;3.90;;
57331;SDS011;43164;50.908;18.092;2022-12-29T09:04:42;10.60;;;3.40;;
57331;SDS011;43164;50.908;18.092;2022-12-29T09:07:14;10.50;;;3.60;;
57331;SDS011;43164;50.908;18.092;2022-12-29T09:09:47;8.90;;;3.30;;
57331;SDS011;43164;50.908;18.092;2022-12-29T09:12:25;10.90;;;4.00;;
57331;SDS011;43164;50.908;18.092;2022-12-29T09:14:53;8.80;;;3.50;;
57331;SDS011;43164;50.908;18.092;2022-12-29T09:17:24;9.70;;;3.50;;
57331;SDS011;43164;50.908;18.092;2022-12-29T09:20:19;11.50;;;4.50;;
57331;SDS011;43164;50.908;18.092;2022-12-29T09:23:01;10.50;;;4.10;;
57331;SDS011;43164;50.908;18.092;2022-12-29T09:25:40;11.90;;;4.10;;
57331;SDS011;43164;50.908;18.092;2022-12-29T09:28:23;9.70;;;3.70;;
57331;SDS011;43164;50.908;18.092;2022-12-29T09:31:00;9.10;;;3.70;;
57331;SDS011;43164;50.908;18.092;2022-12-29T09:33:47;10.80;;;4.20;;
57331;SDS011;43164;50.908;18.092;2022-12-29T09:36:22;9.70;;;3.60;;
57331;SDS011;43164;50.908;18.092;2022-12-29T09:39:09;10.70;;;4.20;;
57331;SDS011;43164;50.908;18.092;2022-12-29T09:41:58;9.50;;;3.40;;
57331;SDS011;43164;50.908;18.092;2022-12-29T09:44:51;9.90;;;3.90;;
57331;SDS011;43164;50.908;18.092;2022-12-29T09:47:42;10.10;;;3.90;;
57331;SDS011;43164;50.908;18.092;2022-12-29T09:50:22;11.40;;;4.00;;
57331;SDS011;43164;50.908;18.092;2022-12-29T09:53:05;11.60;;;4.40;;
57331;SDS011;43164;50.908;18.092;2022-12-29T09:55:58;11.70;;;4.60;;
57331;SDS011;43164;50.908;18.092;2022-12-29T10:01:32;9.60;;;3.80;;
57331;SDS011;43164;50.908;18.092;2022-12-29T10:04:31;10.80;;;4.10;;
57331;SDS011;43164;50.908;18.092;2022-12-29T10:07:10;11.90;;;4.30;;
57331;SDS011;43164;50.908;18.092;2022-12-29T10:12:58;10.00;;;4.10;;
57331;SDS011;43164;50.908;18.092;2022-12-29T10:40:57;12.40;;;5.10;;
57331;SDS011;43164;50.908;18.092;2022-12-29T10:44:11;10.70;;;4.90;;
57331;SDS011;43164;50.908;18.092;2022-12-29T10:47:24;11.00;;;4.80;;
57331;SDS011;43164;50.908;18.092;2022-12-29T10:50:46;10.10;;;4.00;;
57331;SDS011;43164;50.908;18.092;2022-12-29T10:53:21;11.40;;;4.30;;
57331;SDS011;43164;50.908;18.092;2022-12-29T10:55:55;10.30;;;4.10;;
57331;SDS011;43164;50.908;18.092;2022-12-29T10:58:31;9.70;;;3.70;;
57331;SDS011;43164;50.908;18.092;2022-12-29T11:01:01;11.30;;;3.90;;
57331;SDS011;43164;50.908;18.092;2022-12-29T11:03:49;11.10;;;4.30;;
57331;SDS011;43164;50.908;18.092;2022-12-29T11:06:29;13.30;;;5.50;;
57331;SDS011;43164;50.908;18.092;2022-12-29T11:09:17;10.90;;;4.60;;
57331;SDS011;43164;50.908;18.092;2022-12-29T11:11:59;9.50;;;3.70;;
57331;SDS011;43164;50.908;18.092;2022-12-29T11:14:43;11.30;;;3.70;;
57331;SDS011;43164;50.908;18.092;2022-12-29T11:17:14;9.60;;;4.00;;
57331;SDS011;43164;50.908;18.092;2022-12-29T11:19:52;10.90;;;4.10;;
57331;SDS011;43164;50.908;18.092;2022-12-29T11:22:25;11.20;;;4.20;;
57331;SDS011;43164;50.908;18.092;2022-12-29T11:25:05;13.70;;;5.00;;
57331;SDS011;43164;50.908;18.092;2022-12-29T11:27:38;12.50;;;5.50;;
57331;SDS011;43164;50.908;18.092;2022-12-29T11:30:29;14.00;;;6.10;;
57331;SDS011;43164;50.908;18.092;2022-12-29T11:33:03;12.60;;;5.40;;
57331;SDS011;43164;50.908;18.092;2022-12-29T11:35:38;10.20;;;4.40;;
57331;SDS011;43164;50.908;18.092;2022-12-29T11:38:23;10.60;;;4.30;;
57331;SDS011;43164;50.908;18.092;2022-12-29T11:41:22;11.60;;;4.60;;
57331;SDS011;43164;50.908;18.092;2022-12-29T11:44:11;10.40;;;4.10;;
57331;SDS011;43164;50.908;18.092;2022-12-29T11:46:44;13.20;;;4.90;;
57331;SDS011;43164;50.908;18.092;2022-12-29T11:49:22;10.40;;;4.20;;
57331;SDS011;43164;50.908;18.092;2022-12-29T11:52:01;10.40;;;4.80;;
57331;SDS011;43164;50.908;18.092;2022-12-29T11:54:38;10.40;;;4.70;;
57331;SDS011;43164;50.908;18.092;2022-12-29T11:57:17;11.20;;;4.80;;
57331;SDS011;43164;50.908;18.092;2022-12-29T12:03:44;14.50;;;4.80;;
57331;SDS011;43164;50.908;18.092;2022-12-29T12:06:24;11.20;;;4.50;;
57331;SDS011;43164;50.908;18.092;2022-12-29T12:09:10;12.50;;;5.60;;
57331;SDS011;43164;50.908;18.092;2022-12-29T12:11:55;11.90;;;4.80;;
57331;SDS011;43164;50.908;18.092;2022-12-29T12:14:41;9.50;;;3.70;;
57331;SDS011;43164;50.908;18.092;2022-12-29T12:17:44;10.40;;;4.50;;
57331;SDS011;43164;50.908;18.092;2022-12-29T12:23:56;9.90;;;3.90;;
57331;SDS011;43164;50.908;18.092;2022-12-29T12:26:54;10.20;;;4.10;;
57331;SDS011;43164;50.908;18.092;2022-12-29T12:39:05;11.80;;;4.50;;
57331;SDS011;43164;50.908;18.092;2022-12-29T12:48:59;14.70;;;5.00;;
57331;SDS011;43164;50.908;18.092;2022-12-29T12:58:17;13.80;;;5.20;;
57331;SDS011;43164;50.908;18.092;2022-12-29T13:10:54;11.00;;;4.40;;
57331;SDS011;43164;50.908;18.092;2022-12-29T13:22:35;10.30;;;4.30;;
57331;SDS011;43164;50.908;18.092;2022-12-29T13:28:51;12.50;;;4.90;;
57331;SDS011;43164;50.908;18.092;2022-12-29T13:40:55;16.90;;;7.30;;
57331;SDS011;43164;50.908;18.092;2022-12-29T13:43:37;13.70;;;5.20;;
57331;SDS011;43164;50.908;18.092;2022-12-29T13:46:12;12.30;;;5.20;;
57331;SDS011;43164;50.908;18.092;2022-12-29T13:49:05;12.30;;;4.90;;
57331;SDS011;43164;50.908;18.092;2022-12-29T13:51:47;12.00;;;5.50;;
57331;SDS011;43164;50.908;18.092;2022-12-29T13:54:39;12.10;;;5.40;;
57331;SDS011;43164;50.908;18.092;2022-12-29T14:00:38;11.90;;;4.40;;
57331;SDS011;43164;50.908;18.092;2022-12-29T14:03:49;14.00;;;5.30;;
57331;SDS011;43164;50.908;18.092;2022-12-29T14:06:24;14.40;;;5.20;;
57331;SDS011;43164;50.908;18.092;2022-12-29T14:09:04;14.20;;;6.10;;
57331;SDS011;43164;50.908;18.092;2022-12-29T14:11:36;12.10;;;4.70;;
57331;SDS011;43164;50.908;18.092;2022-12-29T14:14:25;12.10;;;5.30;;
57331;SDS011;43164;50.908;18.092;2022-12-29T14:19:51;15.90;;;5.60;;
57331;SDS011;43164;50.908;18.092;2022-12-29T14:28:40;16.40;;;6.50;;
57331;SDS011;43164;50.908;18.092;2022-12-29T14:36:54;14.10;;;5.80;;
57331;SDS011;43164;50.908;18.092;2022-12-29T14:39:31;18.30;;;7.10;;
57331;SDS011;43164;50.908;18.092;2022-12-29T14:42:12;16.20;;;5.90;;
57331;SDS011;43164;50.908;18.092;2022-12-29T14:44:50;15.50;;;5.50;;
57331;SDS011;43164;50.908;18.092;2022-12-29T15:02:20;21.10;;;8.50;;
57331;SDS011;43164;50.908;18.092;2022-12-29T15:04:58;30.00;;;10.70;;
57331;SDS011;43164;50.908;18.092;2022-12-29T15:07:31;21.20;;;8.60;;
57331;SDS011;43164;50.908;18.092;2022-12-29T15:10:11;17.00;;;6.90;;
57331;SDS011;43164;50.908;18.092;2022-12-29T15:12:51;16.20;;;7.00;;
57331;SDS011;43164;50.908;18.092;2022-12-29T15:15:41;18.40;;;6.50;;
57331;SDS011;43164;50.908;18.092;2022-12-29T15:18:25;15.60;;;6.40;;
57331;SDS011;43164;50.908;18.092;2022-12-29T15:21:13;17.60;;;7.30;;
57331;SDS011;43164;50.908;18.092;2022-12-29T15:23:52;17.60;;;6.80;;
57331;SDS011;43164;50.908;18.092;2022-12-29T15:26:22;18.20;;;6.60;;
57331;SDS011;43164;50.908;18.092;2022-12-29T15:28:51;16.60;;;6.50;;
57331;SDS011;43164;50.908;18.092;2022-12-29T15:31:23;12.60;;;5.10;;
57331;SDS011;43164;50.908;18.092;2022-12-29T15:34:11;14.00;;;5.80;;
57331;SDS011;43164;50.908;18.092;2022-12-29T15:36:40;17.10;;;6.60;;
57331;SDS011;43164;50.908;18.092;2022-12-29T15:42:46;15.10;;;6.10;;
57331;SDS011;43164;50.908;18.092;2022-12-29T15:45:30;14.50;;;6.00;;
57331;SDS011;43164;50.908;18.092;2022-12-29T15:48:06;16.50;;;6.60;;
57331;SDS011;43164;50.908;18.092;2022-12-29T15:50:48;16.70;;;7.20;;
57331;SDS011;43164;50.908;18.092;2022-12-29T15:53:26;16.10;;;6.90;;
57331;SDS011;43164;50.908;18.092;2022-12-29T15:56:01;14.60;;;6.20;;
57331;SDS011;43164;50.908;18.092;2022-12-29T15:58:43;18.70;;;6.70;;
57331;SDS011;43164;50.908;18.092;2022-12-29T16:04:00;14.10;;;5.70;;
57331;SDS011;43164;50.908;18.092;2022-12-29T16:06:35;16.10;;;6.80;;
57331;SDS011;43164;50.908;18.092;2022-12-29T16:09:17;14.10;;;6.00;;
57331;SDS011;43164;50.908;18.092;2022-12-29T16:11:51;17.30;;;7.30;;
57331;SDS011;43164;50.908;18.092;2022-12-29T16:14:33;17.50;;;6.30;;
57331;SDS011;43164;50.908;18.092;2022-12-29T16:17:22;15.60;;;7.00;;
57331;SDS011;43164;50.908;18.092;2022-12-29T16:20:00;15.70;;;6.10;;
57331;SDS011;43164;50.908;18.092;2022-12-29T16:22:50;16.30;;;6.60;;
57331;SDS011;43164;50.908;18.092;2022-12-29T16:25:22;16.50;;;6.80;;
57331;SDS011;43164;50.908;18.092;2022-12-29T16:27:56;17.50;;;7.50;;
57331;SDS011;43164;50.908;18.092;2022-12-29T16:30:46;17.30;;;7.60;;
57331;SDS011;43164;50.908;18.092;2022-12-29T16:33:37;13.70;;;5.70;;
57331;SDS011;43164;50.908;18.092;2022-12-29T16:36:28;15.60;;;7.20;;
57331;SDS011;43164;50.908;18.092;2022-12-29T16:39:28;15.30;;;6.60;;
57331;SDS011;43164;50.908;18.092;2022-12-29T16:41:56;15.50;;;6.30;;
57331;SDS011;43164;50.908;18.092;2022-12-29T16:44:27;14.70;;;6.90;;
57331;SDS011;43164;50.908;18.092;2022-12-29T16:49:40;18.20;;;7.40;;
57331;SDS011;43164;50.908;18.092;2022-12-29T16:52:17;19.00;;;6.90;;
57331;SDS011;43164;50.908;18.092;2022-12-29T16:54:58;19.00;;;7.90;;
57331;SDS011;43164;50.908;18.092;2022-12-29T16:57:33;16.60;;;7.30;;
57331;SDS011;43164;50.908;18.092;2022-12-29T17:00:07;18.60;;;7.80;;
57331;SDS011;43164;50.908;18.092;2022-12-29T17:02:45;16.90;;;6.90;;
57331;SDS011;43164;50.908;18.092;2022-12-29T17:05:34;17.00;;;7.80;;
57331;SDS011;43164;50.908;18.092;2022-12-29T17:11:48;18.50;;;8.10;;
57331;SDS011;43164;50.908;18.092;2022-12-29T17:14:55;18.80;;;8.30;;
57331;SDS011;43164;50.908;18.092;2022-12-29T17:17:34;17.50;;;8.40;;
57331;SDS011;43164;50.908;18.092;2022-12-29T17:22:58;21.10;;;7.80;;
57331;SDS011;43164;50.908;18.092;2022-12-29T17:25:32;20.50;;;8.60;;
57331;SDS011;43164;50.908;18.092;2022-12-29T17:28:13;19.80;;;8.60;;
57331;SDS011;43164;50.908;18.092;2022-12-29T17:30:57;19.40;;;7.30;;
57331;SDS011;43164;50.908;18.092;2022-12-29T17:33:37;17.40;;;7.90;;
57331;SDS011;43164;50.908;18.092;2022-12-29T17:36:14;19.10;;;7.40;;
57331;SDS011;43164;50.908;18.092;2022-12-29T17:38:51;15.30;;;7.20;;
57331;SDS011;43164;50.908;18.092;2022-12-29T17:41:25;18.90;;;7.90;;
57331;SDS011;43164;50.908;18.092;2022-12-29T17:43:53;17.10;;;8.30;;
57331;SDS011;43164;50.908;18.092;2022-12-29T17:46:23;15.90;;;7.70;;
57331;SDS011;43164;50.908;18.092;2022-12-29T17:49:05;18.00;;;8.00;;
57331;SDS011;43164;50.908;18.092;2022-12-29T17:51:48;17.90;;;7.60;;
57331;SDS011;43164;50.908;18.092;2022-12-29T17:57:20;18.40;;;7.80;;
57331;SDS011;43164;50.908;18.092;2022-12-29T17:59:53;17.10;;;7.50;;
57331;SDS011;43164;50.908;18.092;2022-12-29T18:02:29;22.90;;;8.80;;
57331;SDS011;43164;50.908;18.092;2022-12-29T18:04:59;17.20;;;7.40;;
57331;SDS011;43164;50.908;18.092;2022-12-29T18:07:28;18.80;;;7.50;;
57331;SDS011;43164;50.908;18.092;2022-12-29T18:09:57;18.50;;;7.80;;
57331;SDS011;43164;50.908;18.092;2022-12-29T18:12:29;19.00;;;9.00;;
57331;SDS011;43164;50.908;18.092;2022-12-29T18:15:02;17.60;;;7.50;;
57331;SDS011;43164;50.908;18.092;2022-12-29T18:17:31;21.20;;;8.70;;
57331;SDS011;43164;50.908;18.092;2022-12-29T18:19:59;18.50;;;8.40;;
57331;SDS011;43164;50.908;18.092;2022-12-29T18:22:28;21.70;;;8.40;;
57331;SDS011;43164;50.908;18.092;2022-12-29T18:24:57;19.50;;;7.30;;
57331;SDS011;43164;50.908;18.092;2022-12-29T18:27:28;19.20;;;8.50;;
57331;SDS011;43164;50.908;18.092;2022-12-29T18:29:57;17.80;;;7.40;;
57331;SDS011;43164;50.908;18.092;2022-12-29T18:32:25;19.50;;;7.70;;
57331;SDS011;43164;50.908;18.092;2022-12-29T18:34:56;21.50;;;9.00;;
57331;SDS011;43164;50.908;18.092;2022-12-29T18:37:25;21.90;;;9.60;;
57331;SDS011;43164;50.908;18.092;2022-12-29T18:39:55;19.90;;;8.60;;